Time;durP1;ratioP1;P1;durP2;ratioP2;P2;SDS_P1;SDS_P2;PMS_P1;PMS_P2;Temp;Humidity;BMP_temperature;BMP_pressure;BME280_temperature;BME280_humidity;BME280_pressure;Samples;Min_cycle;Max_cycle;Signal;HPM_P1;HPM_P2
2024/02/26 00:01:56;;;;;;;;;;;;;;;;;;5082412;28;19958;-58
2024/02/26 00:04:22;;;;;;;;;;;;;;;;;;5084066;28;19912;-58
2024/02/26 00:06:47;;;;;;;;;;;;;;;;;;5088474;28;20598;-58
2024/02/26 00:09:13;;;;;;;;;;;;;;;;;;5078741;28;20508;-58
2024/02/26 00:11:38;;;;;;;;;;;;;;;;;;5085672;28;20334;-57
2024/02/26 00:14:03;;;;;;;;;;;;;;;;;;5085673;28;19909;-58
2024/02/26 00:16:28;;;;;;;;;;;;;;;;;;5078150;28;20004;-58
2024/02/26 00:18:53;;;;;;;;;;;;;;;;;;5086893;28;19966;-59
2024/02/26 00:21:18;;;;;;;;;;;;;;;;;;5088441;28;19916;-59
2024/02/26 00:23:43;;;;;;;;;;;;;;;;;;5088204;28;19922;-58
2024/02/26 00:26:10;;;;;;;;;;;;;;;;;;5085652;28;19912;-58
2024/02/26 00:28:35;;;;;;;;;;;;;;;;;;5086898;28;19934;-58
2024/02/26 00:31:00;;;;;;;;;;;;;;;;;;5081233;28;20438;-58
2024/02/26 00:33:26;;;;;;;;;;;;;;;;;;5086461;28;19919;-60
2024/02/26 00:35:51;;;;;;;;;;;;;;;;;;5082690;28;20338;-58
2024/02/26 00:38:16;;;;;;;;;;;;;;;;;;5082885;28;19935;-58
2024/02/26 00:40:41;;;;;;;;;;;;;;;;;;5085563;28;19970;-59
2024/02/26 00:43:06;;;;;;;;;;;;;;;;;;5083190;28;19913;-58
2024/02/26 00:45:32;;;;;;;;;;;;;;;;;;5080165;28;19912;-58
2024/02/26 00:47:57;;;;;;;;;;;;;;;;;;5083069;28;19957;-58
2024/02/26 00:50:22;;;;;;;;;;;;;;;;;;5081209;28;19919;-59
2024/02/26 00:52:47;;;;;;;;;;;;;;;;;;5079598;28;19937;-59
2024/02/26 00:55:12;;;;;;;;;;;;;;;;;;5089764;28;19989;-58
2024/02/26 00:57:38;;;;;;;;;;;;;;;;;;5086507;28;19912;-58
2024/02/26 01:00:03;;;;;;;;;;;;;;;;;;5086232;28;19916;-58
2024/02/26 01:02:28;;;;;;;;;;;;;;;;;;5086346;28;19912;-59
2024/02/26 01:04:53;;;;;;;;;;;;;;;;;;5081985;28;19942;-58
2024/02/26 01:07:18;;;;;;;;;;;;;;;;;;5083528;28;20302;-58
2024/02/26 01:09:43;;;;;;;;;;;;;;;;;;5085285;28;20287;-58
2024/02/26 01:12:09;;;;;;;;;;;;;;;;;;5083934;28;20026;-58
2024/02/26 01:14:34;;;;;;;;;;;;;;;;;;5081953;28;19923;-58
2024/02/26 01:16:59;;;;;;;;;;;;;;;;;;5083026;28;19951;-62
2024/02/26 01:19:24;;;;;;;;;;;;;;;;;;5084257;28;20409;-58
2024/02/26 01:21:49;;;;;;;;;;;;;;;;;;5078893;28;20423;-59
2024/02/26 01:24:15;;;;;;;;;;;;;;;;;;5080437;28;19919;-59
2024/02/26 01:26:40;;;;;;;;;;;;;;;;;;5084814;28;20384;-58
2024/02/26 01:29:05;;;;;;;;;;;;;;;;;;5089764;28;20501;-59
2024/02/26 01:31:30;;;;;;;;;;;;;;;;;;5088892;28;19969;-58
2024/02/26 01:33:56;;;;;;;;;;;;;;;;;;5087624;28;20288;-58
2024/02/26 01:36:21;;;;;;;;;;;;;;;;;;5084456;28;19955;-58
2024/02/26 01:38:46;;;;;;;;;;;;;;;;;;5086086;28;19931;-58
2024/02/26 01:41:11;;;;;;;;;;;;;;;;;;5085865;28;19920;-63
2024/02/26 01:43:36;;;;;;;;;;;;;;;;;;5086645;28;19923;-63
2024/02/26 01:46:01;;;;;;;;;;;;;;;;;;5084384;28;19916;-63
2024/02/26 01:48:26;;;;;;;;;;;;;;;;;;5089463;28;19912;-63
2024/02/26 01:50:52;;;;;;;;;;;;;;;;;;5089416;28;20373;-62
2024/02/26 01:53:17;;;;;;;;;;;;;;;;;;5085953;28;20372;-63
2024/02/26 01:55:42;;;;;;;;;;;;;;;;;;5088200;28;19963;-62
2024/02/26 01:58:07;;;;;;;;;;;;;;;;;;5084593;28;19963;-63
2024/02/26 02:00:32;;;;;;;;;;;;;;;;;;5086320;28;19931;-62
2024/02/26 02:02:57;;;;;;;;;;;;;;;;;;5090331;28;19918;-63
2024/02/26 02:05:22;;;;;;;;;;;;;;;;;;5088653;28;20373;-63
2024/02/26 02:07:48;;;;;;;;;;;;;;;;;;5085882;28;20003;-63
2024/02/26 02:10:13;;;;;;;;;;;;;;;;;;5085832;28;19926;-63
2024/02/26 02:12:41;;;;;;;;;;;;;;;;;;5085650;28;19962;-63
2024/02/26 02:15:06;;;;;;;;;;;;;;;;;;5085148;28;20322;-63
2024/02/26 02:17:34;;;;;;;;;;;;;;;;;;5085854;28;20373;-63
2024/02/26 02:19:59;;;;;;;;;;;;;;;;;;5083878;28;19974;-63
2024/02/26 02:22:24;;;;;;;;;;;;;;;;;;5088112;28;19912;-63
2024/02/26 02:24:49;;;;;;;;;;;;;;;;;;5085757;28;19913;-63
2024/02/26 02:27:14;;;;;;;;;;;;;;;;;;5084109;28;19912;-62
2024/02/26 02:29:39;;;;;;;;;;;;;;;;;;5087048;28;19957;-63
2024/02/26 02:32:04;;;;;;;;;;;;;;;;;;5084959;28;19916;-62
2024/02/26 02:34:30;;;;;;;;;;;;;;;;;;5079728;28;19920;-62
2024/02/26 02:36:55;;;;;;;;;;;;;;;;;;5086624;28;19912;-63
2024/02/26 02:39:20;;;;;;;;;;;;;;;;;;5087122;28;19978;-62
2024/02/26 02:41:45;;;;;;;;;;;;;;;;;;5086866;28;19912;-63
2024/02/26 02:44:10;;;;;;;;;;;;;;;;;;5087838;28;20405;-63
2024/02/26 02:46:35;;;;;;;;;;;;;;;;;;5089571;28;20377;-62
2024/02/26 02:49:01;;;;;;;;;;;;;;;;;;5087192;28;20380;-63
2024/02/26 02:51:26;;;;;;;;;;;;;;;;;;5088630;28;20327;-63
2024/02/26 02:53:51;;;;;;;;;;;;;;;;;;5086000;28;19921;-62
2024/02/26 02:56:16;;;;;;;;;;;;;;;;;;5086788;28;20433;-63
2024/02/26 02:58:41;;;;;;;;;;;;;;;;;;5084049;28;19917;-63
2024/02/26 03:01:06;;;;;;;;;;;;;;;;;;5083665;28;19919;-63
2024/02/26 03:03:31;;;;;;;;;;;;;;;;;;5085235;28;19965;-63
2024/02/26 03:05:57;;;;;;;;;;;;;;;;;;5082789;28;19931;-63
2024/02/26 03:08:22;;;;;;;;;;;;;;;;;;5088154;28;20369;-63
2024/02/26 03:10:47;;;;;;;;;;;;;;;;;;5083445;28;19908;-63
2024/02/26 03:13:12;;;;;;;;;;;;;;;;;;5089052;28;19942;-63
2024/02/26 03:15:37;;;;;;;;;;;;;;;;;;5085942;28;19912;-63
2024/02/26 03:18:02;;;;;;;;;;;;;;;;;;5083871;28;19936;-63
2024/02/26 03:20:27;;;;;;;;;;;;;;;;;;5084599;28;19924;-63
2024/02/26 03:22:52;;;;;;;;;;;;;;;;;;5088302;28;19919;-63
2024/02/26 03:25:18;;;;;;;;;;;;;;;;;;5081777;28;20027;-63
2024/02/26 03:27:43;;;;;;;;;;;;;;;;;;5089133;28;19958;-64
2024/02/26 03:30:08;;;;;;;;;;;;;;;;;;5083358;28;19965;-63
2024/02/26 03:32:33;;;;;;;;;;;;;;;;;;5082738;28;19966;-63
2024/02/26 03:34:58;;;;;;;;;;;;;;;;;;5088039;28;19927;-63
2024/02/26 03:37:23;;;;;;;;;;;;;;;;;;5086318;28;19954;-63
2024/02/26 03:39:48;;;;;;;;;;;;;;;;;;5086366;28;19925;-63
2024/02/26 03:42:13;;;;;;;;;;;;;;;;;;5091615;28;19965;-63
2024/02/26 03:44:41;;;;;;;;;;;;;;;;;;5086369;28;19962;-63
2024/02/26 03:47:06;;;;;;;;;;;;;;;;;;5083270;28;20021;-63
2024/02/26 03:49:31;;;;;;;;;;;;;;;;;;5087636;28;19999;-63
2024/02/26 03:51:56;;;;;;;;;;;;;;;;;;5084996;28;19912;-63
2024/02/26 03:54:21;;;;;;;;;;;;;;;;;;5088644;28;20306;-63
2024/02/26 03:56:47;;;;;;;;;;;;;;;;;;5085997;28;19916;-63
2024/02/26 03:59:12;;;;;;;;;;;;;;;;;;5084525;28;20107;-65
2024/02/26 04:01:37;;;;;;;;;;;;;;;;;;5087816;28;19955;-66
2024/02/26 04:04:02;;;;;;;;;;;;;;;;;;5085738;28;19912;-63
2024/02/26 04:06:27;;;;;;;;;;;;;;;;;;5085913;28;20212;-63
2024/02/26 04:08:52;;;;;;;;;;;;;;;;;;5085705;28;20365;-63
2024/02/26 04:11:18;;;;;;;;;;;;;;;;;;5086610;28;20379;-63
2024/02/26 04:13:45;;;;;;;;;;;;;;;;;;5082331;28;20268;-63
2024/02/26 04:16:11;;;;;;;;;;;;;;;;;;5080677;28;19913;-62
2024/02/26 04:18:36;;;;;;;;;;;;;;;;;;5081472;28;19918;-63
2024/02/26 04:21:01;;;;;;;;;;;;;;;;;;5086575;28;20053;-62
2024/02/26 04:23:26;;;;;;;;;;;;;;;;;;5076417;28;19936;-62
2024/02/26 04:25:53;;;;;;;;;;;;;;;;;;5082083;28;19934;-63
2024/02/26 04:28:20;;;;;;;;;;;;;;;;;;5082756;28;19913;-63
2024/02/26 04:30:45;;;;;;;;;;;;;;;;;;5082550;28;19927;-63
2024/02/26 04:33:11;;;;;;;;;;;;;;;;;;5082645;28;19912;-63
2024/02/26 04:35:36;;;;;;;;;;;;;;;;;;5080751;28;19920;-63
2024/02/26 04:38:01;;;;;;;;;;;;;;;;;;5082802;28;20631;-62
2024/02/26 04:40:26;;;;;;;;;;;;;;;;;;5079542;28;20385;-62
2024/02/26 04:42:51;;;;;;;;;;;;;;;;;;5081951;28;19912;-63
2024/02/26 04:45:16;;;;;;;;;;;;;;;;;;5080367;28;19916;-63
2024/02/26 04:47:41;;;;;;;;;;;;;;;;;;5083557;28;20404;-63
2024/02/26 04:50:07;;;;;;;;;;;;;;;;;;5083172;28;19912;-63
2024/02/26 04:52:32;;;;;;;;;;;;;;;;;;5080710;28;20280;-63
2024/02/26 04:54:59;;;;;;;;;;;;;;;;;;5078183;28;19913;-63
2024/02/26 04:57:24;;;;;;;;;;;;;;;;;;5084479;28;19912;-63
2024/02/26 04:59:49;;;;;;;;;;;;;;;;;;5084120;28;19927;-63
2024/02/26 05:02:15;;;;;;;;;;;;;;;;;;5087912;28;19915;-63
2024/02/26 05:04:40;;;;;;;;;;;;;;;;;;5089729;28;19923;-62
2024/02/26 05:07:05;;;;;;;;;;;;;;;;;;5086958;28;19919;-63
2024/02/26 05:09:30;;;;;;;;;;;;;;;;;;5085340;28;19920;-63
2024/02/26 05:11:55;;;;;;;;;;;;;;;;;;5087473;28;19913;-59
2024/02/26 05:14:21;;;;;;;;;;;;;;;;;;5090353;28;19916;-59
2024/02/26 05:16:46;;;;;;;;;;;;;;;;;;5085377;28;19916;-59
2024/02/26 05:19:11;;;;;;;;;;;;;;;;;;5087059;28;19921;-58
2024/02/26 05:21:37;;;;;;;;;;;;;;;;;;5092810;28;19916;-58
2024/02/26 05:24:02;;;;;;;;;;;;;;;;;;5085719;28;20291;-58
2024/02/26 05:26:27;;;;;;;;;;;;;;;;;;5089344;28;19952;-58
2024/02/26 05:28:52;;;;;;;;;;;;;;;;;;5086967;28;19913;-59
2024/02/26 05:31:18;;;;;;;;;;;;;;;;;;5084967;28;20326;-60
2024/02/26 05:33:43;;;;;;;;;;;;;;;;;;5083842;28;19922;-58
2024/02/26 05:36:08;;;;;;;;;;;;;;;;;;5087957;28;19912;-58
2024/02/26 05:38:33;;;;;;;;;;;;;;;;;;5090556;28;19919;-58
2024/02/26 05:41:01;;;;;;;;;;;;;;;;;;5090787;28;19916;-58
2024/02/26 05:43:26;;;;;;;;;;;;;;;;;;5086638;28;20319;-60
2024/02/26 05:45:52;;;;;;;;;;;;;;;;;;5088623;28;19919;-60
2024/02/26 05:48:18;;;;;;;;;;;;;;;;;;5088123;28;19912;-59
2024/02/26 05:50:44;;;;;;;;;;;;;;;;;;5085016;28;19917;-58
2024/02/26 05:53:09;;;;;;;;;;;;;;;;;;5091092;28;19924;-58
2024/02/26 05:55:34;;;;;;;;;;;;;;;;;;5084598;28;19919;-58
2024/02/26 05:57:59;;;;;;;;;;;;;;;;;;5091472;28;19912;-58
2024/02/26 06:00:25;;;;;;;;;;;;;;;;;;5083562;28;20006;-59
2024/02/26 06:02:50;;;;;;;;;;;;;;;;;;5084800;28;20399;-58
2024/02/26 06:05:15;;;;;;;;;;;;;;;;;;5082230;28;19919;-58
2024/02/26 06:07:40;;;;;;;;;;;;;;;;;;5080045;28;19932;-58
2024/02/26 06:10:05;;;;;;;;;;;;;;;;;;5075238;28;19999;-58
2024/02/26 06:12:30;;;;;;;;;;;;;;;;;;5082660;28;19912;-58
2024/02/26 06:14:55;;;;;;;;;;;;;;;;;;5080066;28;19917;-58
2024/02/26 06:17:21;;;;;;;;;;;;;;;;;;5078531;28;19927;-62
2024/02/26 06:19:46;;;;;;;;;;;;;;;;;;5081255;28;20013;-58
2024/02/26 06:22:11;;;;;;;;;;;;;;;;;;5082597;28;20347;-60
2024/02/26 06:24:36;;;;;;;;;;;;;;;;;;5074426;28;19947;-58
2024/02/26 06:27:02;;;;;;;;;;;;;;;;;;5075728;28;19958;-58
2024/02/26 06:29:27;;;;;;;;;;;;;;;;;;5086475;28;19912;-58
2024/02/26 06:31:52;;;;;;;;;;;;;;;;;;5089880;28;19913;-63
2024/02/26 06:34:17;;;;;;;;;;;;;;;;;;5074360;28;19916;-64
2024/02/26 06:36:42;;;;;;;;;;;;;;;;;;5074379;28;19966;-63
2024/02/26 06:39:08;;;;;;;;;;;;;;;;;;5074854;28;19946;-63
2024/02/26 06:41:33;;;;;;;;;;;;;;;;;;5080852;28;19919;-62
2024/02/26 06:43:58;;;;;;;;;;;;;;;;;;5072665;28;19913;-63
2024/02/26 06:46:23;;;;;;;;;;;;;;;;;;5071187;28;19913;-61
2024/02/26 06:48:49;;;;;;;;;;;;;;;;;;5075971;28;19913;-65
2024/02/26 06:51:14;;;;;;;;;;;;;;;;;;5081095;28;19916;-62
2024/02/26 06:53:39;;;;;;;;;;;;;;;;;;5079166;28;19913;-63
2024/02/26 06:56:04;;;;;;;;;;;;;;;;;;5087951;28;19912;-63
2024/02/26 06:58:29;;;;;;;;;;;;;;;;;;5085317;28;19913;-63
2024/02/26 07:00:54;;;;;;;;;;;;;;;;;;5082115;28;20002;-63
2024/02/26 07:03:19;;;;;;;;;;;;;;;;;;5075695;28;19920;-62
2024/02/26 07:05:45;;;;;;;;;;;;;;;;;;5076752;28;19919;-62
2024/02/26 07:08:11;;;;;;;;;;;;;;;;;;5083576;28;19924;-63
2024/02/26 07:10:36;;;;;;;;;;;;;;;;;;5076298;28;19916;-63
2024/02/26 07:13:01;;;;;;;;;;;;;;;;;;5081383;28;19931;-62
2024/02/26 07:15:26;;;;;;;;;;;;;;;;;;5081181;28;19923;-63
2024/02/26 07:17:51;;;;;;;;;;;;;;;;;;5071201;28;20389;-63
2024/02/26 07:20:18;;;;;;;;;;;;;;;;;;5071968;28;19920;-62
2024/02/26 07:22:43;;;;;;;;;;;;;;;;;;5075844;28;19919;-63
2024/02/26 07:25:08;;;;;;;;;;;;;;;;;;5071610;28;19916;-63
2024/02/26 07:27:34;;;;;;;;;;;;;;;;;;5074735;28;19955;-63
2024/02/26 07:29:59;;;;;;;;;;;;;;;;;;5071635;28;19916;-64
2024/02/26 07:32:24;;;;;;;;;;;;;;;;;;5071206;28;19952;-63
2024/02/26 07:34:49;;;;;;;;;;;;;;;;;;5080101;28;19916;-62
2024/02/26 07:37:15;;;;;;;;;;;;;;;;;;5075927;28;19913;-63
2024/02/26 07:39:40;;;;;;;;;;;;;;;;;;5077475;28;20090;-63
2024/02/26 07:42:05;;;;;;;;;;;;;;;;;;5070216;28;19919;-63
2024/02/26 07:44:30;;;;;;;;;;;;;;;;;;5074054;28;21513;-63
2024/02/26 07:46:55;;;;;;;;;;;;;;;;;;5072247;28;19912;-61
2024/02/26 07:49:20;;;;;;;;;;;;;;;;;;5071590;28;19920;-63
2024/02/26 07:51:45;;;;;;;;;;;;;;;;;;5072756;28;19917;-63
2024/02/26 07:54:10;;;;;;;;;;;;;;;;;;5075160;28;20269;-62
2024/02/26 07:56:36;;;;;;;;;;;;;;;;;;5081429;28;19927;-64
2024/02/26 07:59:01;;;;;;;;;;;;;;;;;;5075539;28;20261;-63
2024/02/26 08:01:26;;;;;;;;;;;;;;;;;;5071273;28;19919;-63
2024/02/26 08:03:51;;;;;;;;;;;;;;;;;;5071816;28;19928;-63
2024/02/26 08:06:16;;;;;;;;;;;;;;;;;;5077119;28;19923;-63
2024/02/26 08:08:41;;;;;;;;;;;;;;;;;;5075702;28;19915;-63
2024/02/26 08:11:07;;;;;;;;;;;;;;;;;;5079284;28;20001;-64
2024/02/26 08:13:32;;;;;;;;;;;;;;;;;;5072387;28;20357;-63
2024/02/26 08:15:58;;;;;;;;;;;;;;;;;;5070476;28;19924;-64
2024/02/26 08:18:23;;;;;;;;;;;;;;;;;;5071953;28;20427;-63
2024/02/26 08:20:49;;;;;;;;;;;;;;;;;;5077568;28;19916;-63
2024/02/26 08:23:14;;;;;;;;;;;;;;;;;;5077125;28;20669;-63
2024/02/26 08:25:39;;;;;;;;;;;;;;;;;;5072206;28;20408;-64
2024/02/26 08:28:05;;;;;;;;;;;;;;;;;;5076572;28;20353;-64
2024/02/26 08:30:30;;;;;;;;;;;;;;;;;;5069460;28;19946;-61
2024/02/26 08:32:55;;;;;;;;;;;;;;;;;;5074001;28;19912;-64
2024/02/26 08:35:21;;;;;;;;;;;;;;;;;;5071495;28;19948;-62
2024/02/26 08:37:46;;;;;;;;;;;;;;;;;;5076176;28;19914;-64
2024/02/26 08:40:11;;;;;;;;;;;;;;;;;;5071338;28;19992;-63
2024/02/26 08:42:36;;;;;;;;;;;;;;;;;;5070371;28;19959;-63
2024/02/26 08:45:02;;;;;;;;;;;;;;;;;;5079558;28;19913;-63
2024/02/26 08:47:28;;;;;;;;;;;;;;;;;;5072101;28;19920;-63
2024/02/26 08:49:53;;;;;;;;;;;;;;;;;;5075986;28;19943;-63
2024/02/26 08:52:18;;;;;;;;;;;;;;;;;;5079963;28;19916;-63
2024/02/26 08:54:43;;;;;;;;;;;;;;;;;;5073762;28;19912;-64
2024/02/26 08:57:08;;;;;;;;;;;;;;;;;;5071146;28;19917;-64
2024/02/26 08:59:33;;;;;;;;;;;;;;;;;;5069330;28;19916;-63
2024/02/26 09:01:59;;;;;;;;;;;;;;;;;;5071859;28;20526;-63
2024/02/26 09:04:24;;;;;;;;;;;;;;;;;;5077859;28;19937;-64
2024/02/26 09:06:49;;;;;;;;;;;;;;;;;;5073224;28;19912;-63
2024/02/26 09:09:14;;;;;;;;;;;;;;;;;;5071159;28;20003;-63
2024/02/26 09:11:39;;;;;;;;;;;;;;;;;;5076965;28;19912;-64
2024/02/26 09:14:04;;;;;;;;;;;;;;;;;;5072090;28;19912;-64
2024/02/26 09:16:29;;;;;;;;;;;;;;;;;;5071013;28;20245;-62
2024/02/26 09:18:54;;;;;;;;;;;;;;;;;;5072143;28;19998;-62
2024/02/26 09:21:23;;;;;;;;;;;;;;;;;;5079749;28;19917;-62
2024/02/26 09:23:48;;;;;;;;;;;;;;;;;;5072894;28;19917;-62
2024/02/26 09:26:13;;;;;;;;;;;;;;;;;;5071837;28;19917;-62
2024/02/26 09:28:38;;;;;;;;;;;;;;;;;;5070307;28;19947;-62
2024/02/26 09:31:03;;;;;;;;;;;;;;;;;;5073685;28;19957;-62
2024/02/26 09:33:28;;;;;;;;;;;;;;;;;;5072423;28;19967;-62
2024/02/26 09:35:54;;;;;;;;;;;;;;;;;;5073222;28;20006;-62
2024/02/26 09:38:19;;;;;;;;;;;;;;;;;;5072179;28;21203;-62
2024/02/26 09:40:44;;;;;;;;;;;;;;;;;;5071637;28;19924;-62
2024/02/26 09:43:09;;;;;;;;;;;;;;;;;;5069589;28;19920;-62
2024/02/26 09:45:34;;;;;;;;;;;;;;;;;;5072022;28;19996;-62
2024/02/26 09:47:59;;;;;;;;;;;;;;;;;;5077839;28;20212;-62
2024/02/26 09:50:25;;;;;;;;;;;;;;;;;;5079993;28;19928;-62
2024/02/26 09:52:50;;;;;;;;;;;;;;;;;;5075558;28;19920;-62
2024/02/26 09:55:15;;;;;;;;;;;;;;;;;;5073053;28;19966;-62
2024/02/26 09:57:40;;;;;;;;;;;;;;;;;;5072792;28;19912;-61
2024/02/26 10:00:07;;;;;;;;;;;;;;;;;;5075350;28;19920;-62
2024/02/26 10:02:32;;;;;;;;;;;;;;;;;;5072892;28;19913;-61
2024/02/26 10:04:57;;;;;;;;;;;;;;;;;;5078364;28;19912;-62
2024/02/26 10:07:22;;;;;;;;;;;;;;;;;;5076961;28;19913;-62
2024/02/26 10:09:47;;;;;;;;;;;;;;;;;;5075534;28;19912;-62
2024/02/26 10:12:13;;;;;;;;;;;;;;;;;;5072690;28;19932;-62
2024/02/26 10:14:38;;;;;;;;;;;;;;;;;;5077232;28;19919;-62
2024/02/26 10:17:03;;;;;;;;;;;;;;;;;;5077151;28;20003;-62
2024/02/26 10:19:29;;;;;;;;;;;;;;;;;;5076609;28;19923;-62
2024/02/26 10:21:54;;;;;;;;;;;;;;;;;;5075186;28;20027;-62
2024/02/26 10:24:19;;;;;;;;;;;;;;;;;;5080595;28;19918;-62
2024/02/26 10:26:44;;;;;;;;;;;;;;;;;;5075235;28;20001;-62
2024/02/26 10:29:09;;;;;;;;;;;;;;;;;;5077541;28;19936;-61
2024/02/26 10:31:34;;;;;;;;;;;;;;;;;;5079191;28;19923;-62
2024/02/26 10:34:02;;;;;;;;;;;;;;;;;;5076202;28;19923;-62
2024/02/26 10:36:28;;;;;;;;;;;;;;;;;;5073610;28;19965;-62
2024/02/26 10:38:53;;;;;;;;;;;;;;;;;;5072018;28;19925;-62
2024/02/26 10:41:18;;;;;;;;;;;;;;;;;;5075593;28;19995;-62
2024/02/26 10:43:44;;;;;;;;;;;;;;;;;;5089148;28;19919;-62
2024/02/26 10:46:10;;;;;;;;;;;;;;;;;;5058499;28;19916;-62
2024/02/26 10:48:35;;;;;;;;;;;;;;;;;;5084703;28;19913;-62
2024/02/26 10:51:00;;;;;;;;;;;;;;;;;;5076588;28;19990;-61
2024/02/26 10:53:25;;;;;;;;;;;;;;;;;;5073939;28;20283;-64
2024/02/26 10:55:50;;;;;;;;;;;;;;;;;;5074767;28;19927;-62
2024/02/26 10:58:15;;;;;;;;;;;;;;;;;;5073421;28;19958;-63
2024/02/26 11:00:40;;;;;;;;;;;;;;;;;;5072131;28;19923;-62
2024/02/26 11:03:07;;;;;;;;;;;;;;;;;;5073022;28;19916;-62
2024/02/26 11:05:33;;;;;;;;;;;;;;;;;;5088005;28;19923;-62
2024/02/26 11:07:58;;;;;;;;;;;;;;;;;;5071722;28;19990;-62
2024/02/26 11:10:24;;;;;;;;;;;;;;;;;;5083661;28;19916;-62
2024/02/26 11:12:50;;;;;;;;;;;;;;;;;;5074660;28;20007;-58
2024/02/26 11:15:15;;;;;;;;;;;;;;;;;;5076033;28;20041;-58
2024/02/26 11:17:40;;;;;;;;;;;;;;;;;;5077001;28;19921;-57
2024/02/26 11:20:05;;;;;;;;;;;;;;;;;;5079404;28;19920;-58
2024/02/26 11:22:32;;;;;;;;;;;;;;;;;;5075912;28;20388;-58
2024/02/26 11:24:57;;;;;;;;;;;;;;;;;;5076454;28;19913;-58
2024/02/26 11:27:22;;;;;;;;;;;;;;;;;;5076338;28;19920;-58
2024/02/26 11:29:47;;;;;;;;;;;;;;;;;;5072131;28;19916;-58
2024/02/26 11:32:13;;;;;;;;;;;;;;;;;;5077365;28;19912;-58
2024/02/26 11:34:38;;;;;;;;;;;;;;;;;;5075236;28;20384;-59
2024/02/26 11:37:07;;;;;;;;;;;;;;;;;;5075374;28;19958;-59
2024/02/26 11:39:34;;;;;;;;;;;;;;;;;;5071752;28;19924;-59
2024/02/26 11:42:00;;;;;;;;;;;;;;;;;;5071732;28;19912;-59
2024/02/26 11:44:25;;;;;;;;;;;;;;;;;;5084173;28;19918;-59
2024/02/26 11:46:50;;;;;;;;;;;;;;;;;;5073010;28;19998;-58
2024/02/26 11:49:15;;;;;;;;;;;;;;;;;;5072260;28;19920;-59
2024/02/26 11:51:40;;;;;;;;;;;;;;;;;;5077701;28;20005;-61
2024/02/26 11:54:05;;;;;;;;;;;;;;;;;;5073628;28;19958;-59
2024/02/26 11:56:32;;;;;;;;;;;;;;;;;;5075806;28;20012;-61
2024/02/26 11:58:57;;;;;;;;;;;;;;;;;;5082040;28;20406;-59
2024/02/26 12:01:22;;;;;;;;;;;;;;;;;;5079176;28;19912;-59
2024/02/26 12:03:47;;;;;;;;;;;;;;;;;;5082833;28;20407;-59
2024/02/26 12:06:13;;;;;;;;;;;;;;;;;;5073084;28;20536;-60
2024/02/26 12:08:38;;;;;;;;;;;;;;;;;;5080375;28;19912;-59
2024/02/26 12:11:03;;;;;;;;;;;;;;;;;;5072097;28;19956;-59
2024/02/26 12:13:28;;;;;;;;;;;;;;;;;;5075474;28;19912;-59
2024/02/26 12:15:53;;;;;;;;;;;;;;;;;;5070477;28;19917;-59
2024/02/26 12:18:18;;;;;;;;;;;;;;;;;;5070858;28;19912;-59
2024/02/26 12:20:43;;;;;;;;;;;;;;;;;;5081207;28;19961;-59
2024/02/26 12:23:09;;;;;;;;;;;;;;;;;;5074409;28;19916;-62
2024/02/26 12:25:34;;;;;;;;;;;;;;;;;;5074238;28;20821;-60
2024/02/26 12:27:59;;;;;;;;;;;;;;;;;;5074678;28;19923;-60
2024/02/26 12:30:29;;;;;;;;;;;;;;;;;;5074691;28;19915;-59
2024/02/26 12:32:57;;;;;;;;;;;;;;;;;;5084253;28;19922;-59
2024/02/26 12:35:22;;;;;;;;;;;;;;;;;;5083343;28;19913;-59
2024/02/26 12:37:47;;;;;;;;;;;;;;;;;;5075610;28;19912;-59
2024/02/26 12:40:12;;;;;;;;;;;;;;;;;;5070487;28;19928;-59
2024/02/26 12:42:41;;;;;;;;;;;;;;;;;;5079620;28;20358;-58
2024/02/26 12:45:09;;;;;;;;;;;;;;;;;;5077797;28;19920;-58
2024/02/26 12:47:34;;;;;;;;;;;;;;;;;;5070476;28;19924;-59
2024/02/26 12:49:59;;;;;;;;;;;;;;;;;;5069966;28;20015;-59
2024/02/26 12:52:24;;;;;;;;;;;;;;;;;;5081775;28;20010;-59
2024/02/26 12:54:50;;;;;;;;;;;;;;;;;;5070698;28;19919;-59
2024/02/26 12:57:16;;;;;;;;;;;;;;;;;;5075445;28;19958;-59
2024/02/26 12:59:41;;;;;;;;;;;;;;;;;;5086486;28;19966;-59
2024/02/26 13:02:06;;;;;;;;;;;;;;;;;;5075098;28;19913;-59
2024/02/26 13:04:31;;;;;;;;;;;;;;;;;;5080583;28;20003;-59
2024/02/26 13:07:02;;;;;;;;;;;;;;;;;;5070875;28;19917;-59
2024/02/26 13:09:30;;;;;;;;;;;;;;;;;;5075565;28;19916;-59
2024/02/26 13:11:55;;;;;;;;;;;;;;;;;;5078238;28;19919;-59
2024/02/26 13:14:20;;;;;;;;;;;;;;;;;;5072383;28;19921;-59
2024/02/26 13:16:45;;;;;;;;;;;;;;;;;;5069981;28;19958;-63
2024/02/26 13:19:10;;;;;;;;;;;;;;;;;;5075300;28;19921;-61
2024/02/26 13:21:35;;;;;;;;;;;;;;;;;;5082562;28;19916;-59
2024/02/26 13:24:01;;;;;;;;;;;;;;;;;;5078930;28;20365;-58
2024/02/26 13:26:26;;;;;;;;;;;;;;;;;;5073788;28;19916;-59
2024/02/26 13:28:51;;;;;;;;;;;;;;;;;;5079204;28;19920;-59
2024/02/26 13:31:16;;;;;;;;;;;;;;;;;;5079287;28;19912;-59
2024/02/26 13:33:41;;;;;;;;;;;;;;;;;;5072175;28;19920;-63
2024/02/26 13:36:07;;;;;;;;;;;;;;;;;;5082032;28;19920;-64
2024/02/26 13:38:32;;;;;;;;;;;;;;;;;;5079493;28;20377;-63
2024/02/26 13:40:57;;;;;;;;;;;;;;;;;;5075193;28;19916;-63
2024/02/26 13:43:22;;;;;;;;;;;;;;;;;;5073198;28;20369;-62
2024/02/26 13:45:47;;;;;;;;;;;;;;;;;;5078057;28;20011;-63
2024/02/26 13:48:12;;;;;;;;;;;;;;;;;;5076108;28;20541;-63
2024/02/26 13:50:37;;;;;;;;;;;;;;;;;;5074899;28;19966;-63
2024/02/26 13:53:03;;;;;;;;;;;;;;;;;;5074735;28;19919;-63
2024/02/26 13:55:30;;;;;;;;;;;;;;;;;;5076270;28;19912;-63
2024/02/26 13:57:58;;;;;;;;;;;;;;;;;;5076790;28;19916;-66
2024/02/26 14:00:24;;;;;;;;;;;;;;;;;;5077824;28;19919;-62
2024/02/26 14:02:49;;;;;;;;;;;;;;;;;;5076923;28;19916;-63
2024/02/26 14:05:14;;;;;;;;;;;;;;;;;;5076861;28;20270;-63
2024/02/26 14:07:40;;;;;;;;;;;;;;;;;;5076205;28;19935;-62
2024/02/26 14:10:05;;;;;;;;;;;;;;;;;;5073769;28;20261;-62
2024/02/26 14:12:30;;;;;;;;;;;;;;;;;;5077111;28;20719;-62
2024/02/26 14:14:55;;;;;;;;;;;;;;;;;;5075354;28;19908;-62
2024/02/26 14:17:20;;;;;;;;;;;;;;;;;;5074787;28;19943;-63
2024/02/26 14:19:47;;;;;;;;;;;;;;;;;;5081303;28;19958;-62
2024/02/26 14:22:13;;;;;;;;;;;;;;;;;;5072247;28;20344;-63
2024/02/26 14:24:39;;;;;;;;;;;;;;;;;;5086925;28;20393;-65
2024/02/26 14:27:04;;;;;;;;;;;;;;;;;;5079750;28;19912;-62
2024/02/26 14:29:30;;;;;;;;;;;;;;;;;;5077690;28;19974;-63
2024/02/26 14:31:56;;;;;;;;;;;;;;;;;;5080194;28;19912;-62
2024/02/26 14:34:21;;;;;;;;;;;;;;;;;;5071079;28;19909;-62
2024/02/26 14:36:46;;;;;;;;;;;;;;;;;;5080122;28;19917;-63
2024/02/26 14:39:12;;;;;;;;;;;;;;;;;;5080786;28;20286;-63
2024/02/26 14:41:37;;;;;;;;;;;;;;;;;;5075291;28;19912;-62
2024/02/26 14:44:02;;;;;;;;;;;;;;;;;;5071784;28;19923;-62
2024/02/26 14:46:27;;;;;;;;;;;;;;;;;;5074021;28;19920;-62
2024/02/26 14:48:53;;;;;;;;;;;;;;;;;;5078090;28;19912;-62
2024/02/26 14:51:18;;;;;;;;;;;;;;;;;;5071683;28;20334;-63
2024/02/26 14:53:43;;;;;;;;;;;;;;;;;;5081076;28;19912;-62
2024/02/26 14:56:09;;;;;;;;;;;;;;;;;;5075554;28;19913;-64
2024/02/26 14:58:34;;;;;;;;;;;;;;;;;;5073433;28;19962;-63
2024/02/26 15:00:59;;;;;;;;;;;;;;;;;;5074052;28;19967;-64
2024/02/26 15:03:24;;;;;;;;;;;;;;;;;;5079624;28;19913;-63
2024/02/26 15:05:49;;;;;;;;;;;;;;;;;;5074103;28;19958;-63
2024/02/26 15:08:16;;;;;;;;;;;;;;;;;;5075027;28;19912;-63
2024/02/26 15:10:48;;;;;;;;;;;;;;;;;;5077129;28;19919;-64
2024/02/26 15:13:13;;;;;;;;;;;;;;;;;;5073423;28;19912;-63
2024/02/26 15:15:39;;;;;;;;;;;;;;;;;;5076874;28;19912;-62
2024/02/26 15:18:04;;;;;;;;;;;;;;;;;;5071146;28;19944;-65
2024/02/26 15:20:30;;;;;;;;;;;;;;;;;;5073627;28;19931;-64
2024/02/26 15:22:55;;;;;;;;;;;;;;;;;;5074416;28;20408;-64
2024/02/26 15:25:20;;;;;;;;;;;;;;;;;;5070691;28;20018;-64
2024/02/26 15:27:45;;;;;;;;;;;;;;;;;;5073629;28;19912;-64
2024/02/26 15:30:10;;;;;;;;;;;;;;;;;;5076834;28;19920;-63
2024/02/26 15:32:36;;;;;;;;;;;;;;;;;;5073705;28;19995;-64
2024/02/26 15:35:01;;;;;;;;;;;;;;;;;;5072563;28;19913;-63
2024/02/26 15:37:26;;;;;;;;;;;;;;;;;;5081321;28;20274;-64
2024/02/26 15:39:51;;;;;;;;;;;;;;;;;;5075924;28;19932;-64
2024/02/26 15:42:17;;;;;;;;;;;;;;;;;;5079989;28;19975;-64
2024/02/26 15:44:42;;;;;;;;;;;;;;;;;;5074287;28;19934;-64
2024/02/26 15:47:08;;;;;;;;;;;;;;;;;;5074326;28;19916;-64
2024/02/26 15:49:33;;;;;;;;;;;;;;;;;;5072605;28;19912;-64
2024/02/26 15:51:58;;;;;;;;;;;;;;;;;;5080511;28;20101;-64
2024/02/26 15:54:24;;;;;;;;;;;;;;;;;;5082624;28;19920;-64
2024/02/26 15:56:49;;;;;;;;;;;;;;;;;;5080909;28;20551;-64
2024/02/26 15:59:14;;;;;;;;;;;;;;;;;;5080954;28;19962;-65
2024/02/26 16:01:40;;;;;;;;;;;;;;;;;;5074450;28;19920;-64
2024/02/26 16:04:05;;;;;;;;;;;;;;;;;;5082706;28;19961;-65
2024/02/26 16:06:31;;;;;;;;;;;;;;;;;;5081636;28;19917;-64
2024/02/26 16:08:57;;;;;;;;;;;;;;;;;;5080828;28;19916;-65
2024/02/26 16:11:22;;;;;;;;;;;;;;;;;;5082063;28;19924;-64
2024/02/26 16:13:47;;;;;;;;;;;;;;;;;;5081639;28;19916;-64
2024/02/26 16:16:13;;;;;;;;;;;;;;;;;;5081162;28;19911;-64
2024/02/26 16:18:39;;;;;;;;;;;;;;;;;;5081079;28;19916;-64
2024/02/26 16:21:05;;;;;;;;;;;;;;;;;;5073244;28;19927;-65
2024/02/26 16:23:31;;;;;;;;;;;;;;;;;;5077174;28;19967;-65
2024/02/26 16:25:56;;;;;;;;;;;;;;;;;;5070289;28;20304;-64
2024/02/26 16:28:24;;;;;;;;;;;;;;;;;;5069647;28;19924;-64
2024/02/26 16:30:50;;;;;;;;;;;;;;;;;;5070420;28;19939;-65
2024/02/26 16:33:15;;;;;;;;;;;;;;;;;;5076661;28;20330;-64